Time;durP1;ratioP1;P1;durP2;ratioP2;P2;SDS_P1;SDS_P2;PMS_P1;PMS_P2;Temp;Humidity;BMP_temperature;BMP_pressure;BME280_temperature;BME280_humidity;BME280_pressure;Samples;Min_cycle;Max_cycle;Signal;HPM_P1;HPM_P2
2023/02/21 02:15:47;;;;;;;;;58.00;45.00;;;;;;;;5026656;28;8926;-78
2023/02/21 02:18:52;;;;;;;;;60.00;47.67;;;;;;;;5039864;28;8896;-79
2023/02/21 02:22:19;;;;;;;;;59.33;51.00;;;;;;;;5012204;28;8878;-77
2023/02/21 02:25:10;;;;;;;;;69.00;56.33;;;;;;;;4960244;28;8888;-78
2023/02/21 02:28:08;;;;;;;;;64.33;51.33;;;;;;;;4974577;28;9132;-78
2023/02/21 02:31:19;;;;;;;;;58.33;50.33;;;;;;;;5027546;28;8823;-77
2023/02/21 02:34:22;;;;;;;;;64.33;54.00;;;;;;;;5013529;28;8901;-77
2023/02/21 02:36:54;;;;;;;;;48.33;44.33;;;;;;;;5037918;28;8855;-77
2023/02/21 02:39:27;;;;;;;;;62.67;48.67;;;;;;;;5039668;28;8826;-78
2023/02/21 02:42:00;;;;;;;;;55.00;45.67;;;;;;;;5045708;28;8853;-77
2023/02/21 02:44:32;;;;;;;;;51.33;45.00;;;;;;;;5043228;28;8875;-76
2023/02/21 02:47:03;;;;;;;;;55.00;47.33;;;;;;;;5043182;28;8854;-77
2023/02/21 02:49:33;;;;;;;;;60.00;50.00;;;;;;;;5038938;28;8869;-75
2023/02/21 02:52:06;;;;;;;;;56.00;49.00;;;;;;;;5044674;28;8899;-77
2023/02/21 02:54:34;;;;;;;;;64.67;50.00;;;;;;;;5022713;28;8840;-77
2023/02/21 02:57:03;;;;;;;;;54.00;46.00;;;;;;;;5047194;28;8912;-77
2023/02/21 02:59:32;;;;;;;;;55.00;48.33;;;;;;;;5040586;28;8856;-77
2023/02/21 03:02:22;;;;;;;;;51.33;44.67;;;;;;;;5029825;28;8845;-78
2023/02/21 03:05:04;;;;;;;;;49.67;43.33;;;;;;;;5020139;28;8847;-78
2023/02/21 03:07:42;;;;;;;;;61.67;47.00;;;;;;;;5024283;28;8871;-78
2023/02/21 03:10:18;;;;;;;;;50.33;43.33;;;;;;;;5007249;28;8854;-78
2023/02/21 03:12:49;;;;;;;;;50.67;40.33;;;;;;;;5021947;28;8866;-76
2023/02/21 03:15:20;;;;;;;;;53.33;40.67;;;;;;;;5010129;28;8873;-76
2023/02/21 03:17:54;;;;;;;;;52.00;42.67;;;;;;;;5024682;28;8864;-77
2023/02/21 03:20:23;;;;;;;;;48.67;41.67;;;;;;;;5042961;28;8852;-77
2023/02/21 03:22:53;;;;;;;;;48.00;43.33;;;;;;;;5045239;28;8881;-77
2023/02/21 03:25:22;;;;;;;;;47.00;41.33;;;;;;;;5018818;28;8855;-77
2023/02/21 03:27:51;;;;;;;;;54.33;44.00;;;;;;;;5045397;28;8844;-77
2023/02/21 03:30:19;;;;;;;;;47.67;42.33;;;;;;;;5042699;28;8829;-77
2023/02/21 03:32:50;;;;;;;;;39.00;38.33;;;;;;;;5049694;28;8924;-77
2023/02/21 03:35:18;;;;;;;;;36.67;35.33;;;;;;;;5046367;28;8927;-77
2023/02/21 03:37:47;;;;;;;;;41.00;36.00;;;;;;;;5042169;28;8855;-77
2023/02/21 03:40:18;;;;;;;;;48.67;41.33;;;;;;;;5050421;28;8901;-77
2023/02/21 03:42:46;;;;;;;;;52.00;43.67;;;;;;;;5008252;28;8852;-77
2023/02/21 03:45:14;;;;;;;;;57.33;44.67;;;;;;;;5014249;28;8858;-77
2023/02/21 03:47:41;;;;;;;;;48.33;41.33;;;;;;;;5030741;28;8866;-77
2023/02/21 03:50:09;;;;;;;;;54.67;45.67;;;;;;;;5029625;28;8843;-77
2023/02/21 03:52:37;;;;;;;;;55.33;44.33;;;;;;;;5048368;28;8887;-77
2023/02/21 03:55:05;;;;;;;;;42.33;39.33;;;;;;;;5049250;28;9687;-77
2023/02/21 03:57:34;;;;;;;;;45.00;38.00;;;;;;;;5009095;28;8945;-77
2023/02/21 04:00:02;;;;;;;;;47.00;41.67;;;;;;;;5051563;28;8847;-77
2023/02/21 04:02:29;;;;;;;;;49.33;42.67;;;;;;;;5044816;28;8807;-77
2023/02/21 04:04:57;;;;;;;;;59.33;47.00;;;;;;;;5039622;28;8846;-77
2023/02/21 04:07:24;;;;;;;;;51.67;44.67;;;;;;;;5025942;28;8862;-78
2023/02/21 04:09:51;;;;;;;;;48.67;43.00;;;;;;;;5046763;28;8844;-76
2023/02/21 04:12:19;;;;;;;;;41.67;36.00;;;;;;;;5023546;28;8855;-77
2023/02/21 04:14:48;;;;;;;;;41.33;35.00;;;;;;;;5028295;28;8865;-77
2023/02/21 04:17:16;;;;;;;;;53.67;43.33;;;;;;;;5046221;28;8843;-77
2023/02/21 04:19:43;;;;;;;;;47.33;43.33;;;;;;;;5033124;28;8877;-76
2023/02/21 04:22:10;;;;;;;;;52.67;46.00;;;;;;;;5047283;28;8863;-77
2023/02/21 04:24:38;;;;;;;;;51.33;46.33;;;;;;;;5044120;28;8863;-77
2023/02/21 04:27:05;;;;;;;;;49.00;43.67;;;;;;;;5045796;28;8838;-77
2023/02/21 04:29:33;;;;;;;;;51.00;41.33;;;;;;;;5024804;28;8858;-77
2023/02/21 04:32:03;;;;;;;;;49.00;43.67;;;;;;;;5025921;28;8808;-77
2023/02/21 04:34:30;;;;;;;;;38.67;38.67;;;;;;;;5045522;28;8848;-78
2023/02/21 04:36:57;;;;;;;;;41.67;37.67;;;;;;;;5044569;28;8929;-77
2023/02/21 04:39:25;;;;;;;;;56.00;41.00;;;;;;;;5027028;28;8930;-77
2023/02/21 04:41:52;;;;;;;;;45.33;39.00;;;;;;;;5042434;28;8885;-79
2023/02/21 04:44:19;;;;;;;;;45.00;39.00;;;;;;;;5047255;28;8854;-78
2023/02/21 04:46:47;;;;;;;;;41.00;40.67;;;;;;;;5041273;28;8913;-78
2023/02/21 04:49:16;;;;;;;;;35.00;29.00;;;;;;;;5044454;28;8832;-78
2023/02/21 04:51:43;;;;;;;;;42.33;29.00;;;;;;;;5010203;28;8855;-76
2023/02/21 04:54:11;;;;;;;;;32.33;31.00;;;;;;;;5021588;28;8897;-78
2023/02/21 04:56:38;;;;;;;;;36.33;34.00;;;;;;;;5006390;28;8870;-78
2023/02/21 04:59:06;;;;;;;;;35.00;33.00;;;;;;;;5043474;28;8877;-78
2023/02/21 05:01:33;;;;;;;;;41.33;33.33;;;;;;;;5040727;28;8795;-78
2023/02/21 05:04:00;;;;;;;;;48.33;42.00;;;;;;;;5047361;28;8875;-79
2023/02/21 05:06:30;;;;;;;;;39.33;39.00;;;;;;;;5024468;28;8855;-79
2023/02/21 05:08:58;;;;;;;;;42.67;37.33;;;;;;;;5019758;28;8954;-79
2023/02/21 05:11:26;;;;;;;;;48.67;40.33;;;;;;;;5022030;28;8838;-79
2023/02/21 05:13:54;;;;;;;;;41.67;37.00;;;;;;;;5048120;28;8879;-79
2023/02/21 05:16:22;;;;;;;;;30.00;30.00;;;;;;;;5045334;28;8852;-79
2023/02/21 05:18:50;;;;;;;;;48.67;42.00;;;;;;;;5044052;28;8834;-78
2023/02/21 05:21:18;;;;;;;;;41.67;36.67;;;;;;;;5043258;28;8831;-79
2023/02/21 05:23:54;;;;;;;;;36.00;33.00;;;;;;;;5048646;28;8848;-78
2023/02/21 05:26:24;;;;;;;;;44.00;40.33;;;;;;;;5042387;28;8874;-77
2023/02/21 05:28:53;;;;;;;;;50.33;40.33;;;;;;;;5028645;28;8979;-78
2023/02/21 05:31:20;;;;;;;;;46.00;40.67;;;;;;;;5032858;28;8841;-78
2023/02/21 05:33:48;;;;;;;;;41.67;35.00;;;;;;;;5050717;28;8872;-78
2023/02/21 05:36:16;;;;;;;;;42.33;40.00;;;;;;;;5047577;28;8859;-78
2023/02/21 05:38:50;;;;;;;;;40.33;38.67;;;;;;;;5027179;28;8891;-79
2023/02/21 05:41:19;;;;;;;;;51.67;42.00;;;;;;;;5028164;28;8882;-78
2023/02/21 05:43:47;;;;;;;;;44.00;39.33;;;;;;;;5042165;28;9585;-77
2023/02/21 05:46:23;;;;;;;;;40.33;39.00;;;;;;;;5045545;28;8846;-78
2023/02/21 05:48:50;;;;;;;;;51.67;43.67;;;;;;;;5045029;28;8887;-78
2023/02/21 05:51:18;;;;;;;;;33.67;30.67;;;;;;;;5048270;28;8846;-78
2023/02/21 05:53:48;;;;;;;;;40.33;38.67;;;;;;;;5048528;28;8912;-80
2023/02/21 05:56:16;;;;;;;;;46.00;39.33;;;;;;;;5042288;28;8902;-78
2023/02/21 05:58:43;;;;;;;;;45.00;40.00;;;;;;;;5046198;28;8856;-78
2023/02/21 06:01:12;;;;;;;;;50.67;41.67;;;;;;;;5045026;28;8813;-78
2023/02/21 06:03:39;;;;;;;;;36.33;36.33;;;;;;;;5047518;28;8867;-78
2023/02/21 06:06:07;;;;;;;;;44.00;42.67;;;;;;;;5028474;28;8894;-78
2023/02/21 06:08:42;;;;;;;;;42.67;40.00;;;;;;;;5027202;28;8843;-77
2023/02/21 06:11:11;;;;;;;;;65.00;53.00;;;;;;;;5024554;28;8847;-77
2023/02/21 06:13:39;;;;;;;;;49.00;42.33;;;;;;;;5046028;28;8850;-78
2023/02/21 06:16:06;;;;;;;;;44.67;40.67;;;;;;;;5046978;28;9667;-77
2023/02/21 06:18:34;;;;;;;;;52.33;38.67;;;;;;;;5032462;28;8835;-78
2023/02/21 06:21:01;;;;;;;;;44.67;42.33;;;;;;;;5027777;28;8876;-78
2023/02/21 06:23:28;;;;;;;;;43.67;39.67;;;;;;;;5050033;28;8883;-79
2023/02/21 06:25:56;;;;;;;;;57.67;47.00;;;;;;;;5052781;28;8855;-78
2023/02/21 06:28:29;;;;;;;;;36.00;36.00;;;;;;;;4994314;28;8886;-77
2023/02/21 06:30:57;;;;;;;;;49.67;35.00;;;;;;;;5047098;28;8830;-79
2023/02/21 06:33:24;;;;;;;;;37.67;34.33;;;;;;;;5031648;28;8859;-80
2023/02/21 06:35:52;;;;;;;;;46.33;41.33;;;;;;;;5032589;28;8885;-78
2023/02/21 06:38:19;;;;;;;;;42.00;41.33;;;;;;;;5047317;28;8839;-77
2023/02/21 06:40:47;;;;;;;;;55.33;41.67;;;;;;;;5048188;28;8828;-77
2023/02/21 06:43:15;;;;;;;;;48.00;41.00;;;;;;;;5029509;28;9417;-78
2023/02/21 06:45:45;;;;;;;;;39.33;36.33;;;;;;;;5025201;28;8893;-85
2023/02/21 06:48:15;;;;;;;;;38.67;35.00;;;;;;;;5030188;28;8855;-79
2023/02/21 06:50:43;;;;;;;;;46.00;41.33;;;;;;;;5021330;28;8851;-76
2023/02/21 06:53:10;;;;;;;;;44.00;37.67;;;;;;;;5046390;28;8873;-73
2023/02/21 06:55:38;;;;;;;;;47.00;41.67;;;;;;;;5041553;28;8871;-74
2023/02/21 06:58:05;;;;;;;;;43.00;37.33;;;;;;;;5026025;28;8855;-74
2023/02/21 07:00:32;;;;;;;;;41.00;39.00;;;;;;;;5046404;28;8831;-73
2023/02/21 07:03:01;;;;;;;;;45.67;39.00;;;;;;;;5040507;28;8844;-75
2023/02/21 07:05:33;;;;;;;;;44.67;37.67;;;;;;;;5047575;28;8860;-74
2023/02/21 07:08:00;;;;;;;;;42.00;38.00;;;;;;;;5028373;28;8842;-74
2023/02/21 07:10:28;;;;;;;;;47.00;40.67;;;;;;;;5044295;28;8851;-75
2023/02/21 07:12:56;;;;;;;;;42.00;40.33;;;;;;;;5005412;28;8862;-74
2023/02/21 07:15:24;;;;;;;;;42.33;37.00;;;;;;;;5027270;28;8855;-74
2023/02/21 07:17:51;;;;;;;;;43.33;40.00;;;;;;;;5038728;28;8867;-72
2023/02/21 07:20:20;;;;;;;;;45.67;41.33;;;;;;;;5026824;28;8899;-72
2023/02/21 07:22:48;;;;;;;;;54.33;39.67;;;;;;;;5035059;28;8891;-71
2023/02/21 07:25:17;;;;;;;;;38.67;36.67;;;;;;;;5034431;28;8874;-73
2023/02/21 07:27:44;;;;;;;;;34.00;32.67;;;;;;;;5037622;28;8921;-73
2023/02/21 07:30:12;;;;;;;;;32.67;30.33;;;;;;;;5022263;28;8893;-72
2023/02/21 07:32:40;;;;;;;;;47.00;39.33;;;;;;;;5041466;28;8838;-75
2023/02/21 07:35:08;;;;;;;;;42.67;41.67;;;;;;;;5037816;28;8841;-73
2023/02/21 07:37:36;;;;;;;;;45.67;40.33;;;;;;;;5042591;28;9617;-71
2023/02/21 07:40:05;;;;;;;;;42.67;38.33;;;;;;;;5021678;28;8864;-73
2023/02/21 07:42:33;;;;;;;;;46.00;40.00;;;;;;;;5043107;28;8959;-74
2023/02/21 07:45:01;;;;;;;;;42.67;40.67;;;;;;;;5042996;28;9687;-73
2023/02/21 07:47:30;;;;;;;;;52.00;44.33;;;;;;;;5027635;28;9648;-74
2023/02/21 07:49:57;;;;;;;;;62.67;47.00;;;;;;;;5041194;28;8839;-73
2023/02/21 07:52:24;;;;;;;;;52.00;45.00;;;;;;;;5044020;28;8867;-72
2023/02/21 07:54:53;;;;;;;;;53.00;44.67;;;;;;;;5040786;28;8885;-72
2023/02/21 07:57:21;;;;;;;;;54.00;45.67;;;;;;;;5040305;28;8911;-72
2023/02/21 07:59:48;;;;;;;;;48.00;43.67;;;;;;;;5042441;28;8860;-71
2023/02/21 08:02:16;;;;;;;;;36.33;28.00;;;;;;;;5014704;28;8827;-72
2023/02/21 08:04:43;;;;;;;;;48.33;38.00;;;;;;;;5038514;28;8862;-71
2023/02/21 08:07:10;;;;;;;;;59.00;42.33;;;;;;;;5042615;28;8837;-70
2023/02/21 08:09:38;;;;;;;;;57.33;49.67;;;;;;;;5037394;28;9656;-71
2023/02/21 08:12:08;;;;;;;;;60.33;49.33;;;;;;;;5041112;28;8934;-71
2023/02/21 08:14:35;;;;;;;;;63.33;48.33;;;;;;;;5019511;28;8874;-71
2023/02/21 08:17:03;;;;;;;;;63.00;48.00;;;;;;;;5041954;28;8881;-72
2023/02/21 08:19:30;;;;;;;;;52.67;42.67;;;;;;;;5037838;28;8906;-71
2023/02/21 08:21:58;;;;;;;;;55.67;45.00;;;;;;;;5023053;28;8866;-71
2023/02/21 08:24:25;;;;;;;;;49.67;45.00;;;;;;;;5041700;28;9233;-70
2023/02/21 08:26:53;;;;;;;;;63.33;49.67;;;;;;;;5041774;28;8872;-70
2023/02/21 08:29:21;;;;;;;;;45.33;40.33;;;;;;;;5040678;28;8847;-71
2023/02/21 08:31:49;;;;;;;;;56.67;46.00;;;;;;;;5020576;28;8832;-71
2023/02/21 08:34:17;;;;;;;;;45.00;37.67;;;;;;;;5042123;28;9676;-72
2023/02/21 08:36:44;;;;;;;;;53.67;46.00;;;;;;;;5024677;28;8859;-71
2023/02/21 08:39:12;;;;;;;;;59.67;47.00;;;;;;;;5025163;28;9005;-71
2023/02/21 08:41:41;;;;;;;;;57.67;43.00;;;;;;;;5047983;28;8947;-71
2023/02/21 08:44:09;;;;;;;;;54.67;47.00;;;;;;;;5046145;28;8899;-72
2023/02/21 08:46:39;;;;;;;;;50.33;40.33;;;;;;;;5049519;28;8867;-71
2023/02/21 08:49:06;;;;;;;;;44.00;42.67;;;;;;;;5052513;28;8875;-72
2023/02/21 08:51:35;;;;;;;;;44.00;37.67;;;;;;;;5050363;28;8854;-70
2023/02/21 08:54:03;;;;;;;;;55.00;42.00;;;;;;;;5022879;28;8867;-71
2023/02/21 08:56:31;;;;;;;;;55.00;44.00;;;;;;;;5026677;28;8878;-71
2023/02/21 08:58:58;;;;;;;;;50.00;42.67;;;;;;;;5019725;28;8863;-72
2023/02/21 09:01:31;;;;;;;;;47.67;40.33;;;;;;;;5043920;28;9656;-73
2023/02/21 09:04:00;;;;;;;;;40.33;37.00;;;;;;;;5026401;28;8851;-72
2023/02/21 09:06:27;;;;;;;;;51.00;40.67;;;;;;;;5026524;28;8859;-71
2023/02/21 09:08:55;;;;;;;;;56.33;43.67;;;;;;;;5047438;28;8847;-70
2023/02/21 09:11:23;;;;;;;;;51.00;44.00;;;;;;;;5049774;28;8840;-73
2023/02/21 09:13:51;;;;;;;;;52.33;44.33;;;;;;;;5047637;28;8842;-71
2023/02/21 09:16:19;;;;;;;;;57.33;47.33;;;;;;;;5045726;28;8843;-73
2023/02/21 09:18:54;;;;;;;;;51.00;44.00;;;;;;;;5038945;28;8885;-72
2023/02/21 09:21:23;;;;;;;;;54.00;44.33;;;;;;;;5043245;28;8872;-71
2023/02/21 09:23:53;;;;;;;;;49.33;45.00;;;;;;;;5032153;28;8855;-70
2023/02/21 09:26:22;;;;;;;;;37.00;34.33;;;;;;;;5046313;28;9719;-71
2023/02/21 09:28:50;;;;;;;;;47.67;43.67;;;;;;;;5024157;28;8892;-71
2023/02/21 09:31:17;;;;;;;;;57.33;47.00;;;;;;;;5040333;28;8779;-70
2023/02/21 09:33:45;;;;;;;;;47.67;41.00;;;;;;;;5029462;28;8848;-69
2023/02/21 09:36:13;;;;;;;;;47.00;42.00;;;;;;;;5041124;28;8890;-70
2023/02/21 09:38:42;;;;;;;;;46.00;42.00;;;;;;;;5036076;28;8846;-71
2023/02/21 09:41:12;;;;;;;;;49.00;43.67;;;;;;;;5022779;28;11538;-71
2023/02/21 09:43:41;;;;;;;;;43.67;40.33;;;;;;;;5035510;28;12413;-72
2023/02/21 09:46:12;;;;;;;;;50.33;42.33;;;;;;;;5043962;28;11562;-71
2023/02/21 09:48:40;;;;;;;;;50.33;42.33;;;;;;;;5035879;28;11557;-71
2023/02/21 09:51:09;;;;;;;;;57.33;46.33;;;;;;;;5037478;28;12347;-72
2023/02/21 09:53:40;;;;;;;;;58.67;45.33;;;;;;;;5037994;28;11553;-71
2023/02/21 09:56:14;;;;;;;;;57.00;46.00;;;;;;;;5038540;28;11536;-71
2023/02/21 09:58:44;;;;;;;;;47.25;40.50;;;;;;;;5038155;28;11544;-71
2023/02/21 10:01:22;;;;;;;;;55.00;41.25;;;;;;;;5038138;28;11544;-73
2023/02/21 10:03:58;;;;;;;;;49.00;42.00;;;;;;;;5041392;28;11620;-71
2023/02/21 10:06:34;;;;;;;;;44.25;38.00;;;;;;;;5019883;28;12369;-72
2023/02/21 10:09:05;;;;;;;;;48.25;41.25;;;;;;;;5039465;28;11590;-72
2023/02/21 10:11:41;;;;;;;;;48.25;40.75;;;;;;;;5035968;28;11636;-72
2023/02/21 10:14:19;;;;;;;;;49.00;42.00;;;;;;;;5039205;28;11552;-70
2023/02/21 10:16:51;;;;;;;;;49.25;41.75;;;;;;;;5039953;28;11581;-72
2023/02/21 10:19:24;;;;;;;;;49.50;42.00;;;;;;;;5038998;28;11522;-71
2023/02/21 10:21:57;;;;;;;;;45.75;40.75;;;;;;;;5040381;28;11583;-72
2023/02/21 10:24:27;;;;;;;;;49.00;39.50;;;;;;;;5046043;28;11573;-72
2023/02/21 10:27:01;;;;;;;;;51.00;41.75;;;;;;;;5043785;28;11570;-72
2023/02/21 10:29:39;;;;;;;;;55.75;45.25;;;;;;;;5022550;28;11554;-75
2023/02/21 10:32:07;;;;;;;;;55.50;43.25;;;;;;;;5042737;28;12536;-72
2023/02/21 10:34:35;;;;;;;;;51.75;41.25;;;;;;;;5038495;28;11584;-73
2023/02/21 10:37:07;;;;;;;;;53.25;43.75;;;;;;;;5041924;28;11555;-72
2023/02/21 10:39:39;;;;;;;;;50.75;43.75;;;;;;;;5041338;28;11580;-71
2023/02/21 10:42:12;;;;;;;;;45.25;41.00;;;;;;;;5044134;28;11537;-72
2023/02/21 10:44:39;;;;;;;;;58.50;48.00;;;;;;;;5036650;28;11564;-72
2023/02/21 10:47:14;;;;;;;;;38.00;36.00;;;;;;;;5039614;28;11536;-70
2023/02/21 10:49:47;;;;;;;;;52.00;43.25;;;;;;;;5037837;28;11624;-72
2023/02/21 10:52:19;;;;;;;;;42.25;38.75;;;;;;;;5007272;28;11537;-73
2023/02/21 10:55:01;;;;;;;;;42.75;40.25;;;;;;;;5042514;28;11694;-73
2023/02/21 10:57:32;;;;;;;;;44.50;38.75;;;;;;;;5038101;28;11568;-72
2023/02/21 10:59:59;;;;;;;;;49.75;42.75;;;;;;;;5003772;28;11583;-71
2023/02/21 11:02:31;;;;;;;;;43.00;36.00;;;;;;;;5036950;28;12369;-72
2023/02/21 11:05:10;;;;;;;;;54.00;41.50;;;;;;;;5042613;28;11527;-73
2023/02/21 11:07:38;;;;;;;;;44.50;37.00;;;;;;;;5007997;28;11691;-71
2023/02/21 11:10:30;;;;;;;;;51.00;42.25;;;;;;;;5026159;28;11590;-72
2023/02/21 11:13:11;;;;;;;;;48.75;42.00;;;;;;;;5045279;28;11630;-71
2023/02/21 11:15:39;;;;;;;;;41.50;38.75;;;;;;;;5039732;28;11585;-71
2023/02/21 11:18:14;;;;;;;;;52.25;42.50;;;;;;;;5045019;28;11585;-75
2023/02/21 11:20:42;;;;;;;;;46.75;41.25;;;;;;;;5037899;28;11603;-75
2023/02/21 11:23:21;;;;;;;;;50.25;40.00;;;;;;;;5024201;28;11566;-74
2023/02/21 11:25:49;;;;;;;;;48.25;42.25;;;;;;;;5040073;28;11542;-74
2023/02/21 11:28:22;;;;;;;;;56.25;45.75;;;;;;;;5018577;28;11540;-75
2023/02/21 11:31:03;;;;;;;;;54.75;46.75;;;;;;;;5038437;28;11473;-73
2023/02/21 11:33:33;;;;;;;;;49.25;43.50;;;;;;;;5042161;28;11566;-74
2023/02/21 11:36:12;;;;;;;;;39.50;36.00;;;;;;;;5038697;28;11568;-74
2023/02/21 11:38:42;;;;;;;;;52.25;42.25;;;;;;;;5022371;28;11635;-75
2023/02/21 11:41:23;;;;;;;;;43.00;38.75;;;;;;;;5047088;28;11525;-74
2023/02/21 11:43:53;;;;;;;;;50.50;39.75;;;;;;;;5041842;28;11631;-73
2023/02/21 11:46:34;;;;;;;;;55.25;44.75;;;;;;;;5044885;28;11567;-74
2023/02/21 11:49:07;;;;;;;;;55.25;43.75;;;;;;;;5044712;28;11656;-71
2023/02/21 11:51:39;;;;;;;;;52.25;44.00;;;;;;;;5041915;28;12348;-73
2023/02/21 11:54:07;;;;;;;;;50.00;42.75;;;;;;;;5042904;28;12803;-73
2023/02/21 11:56:43;;;;;;;;;49.50;38.25;;;;;;;;5024402;28;11553;-73
2023/02/21 11:59:24;;;;;;;;;59.25;45.00;;;;;;;;5047397;28;11539;-72
2023/02/21 12:02:14;;;;;;;;;52.75;44.75;;;;;;;;5043321;28;11647;-75
2023/02/21 12:05:09;;;;;;;;;50.00;41.50;;;;;;;;5048522;28;11587;-75
2023/02/21 12:07:42;;;;;;;;;61.00;48.00;;;;;;;;5040718;28;11542;-72
2023/02/21 12:10:33;;;;;;;;;58.50;46.25;;;;;;;;5047752;28;11560;-72
2023/02/21 12:13:08;;;;;;;;;52.75;45.50;;;;;;;;5051895;28;11550;-72
2023/02/21 12:15:46;;;;;;;;;58.00;47.00;;;;;;;;5052354;28;11593;-72
2023/02/21 12:18:34;;;;;;;;;47.00;40.00;;;;;;;;5028951;28;11584;-72
2023/02/21 12:21:26;;;;;;;;;54.75;46.25;;;;;;;;5048438;28;11667;-72
2023/02/21 12:24:00;;;;;;;;;51.00;40.00;;;;;;;;4984297;28;11550;-72
2023/02/21 12:26:34;;;;;;;;;50.25;42.00;;;;;;;;5030583;28;11515;-74
2023/02/21 12:29:10;;;;;;;;;52.00;40.25;;;;;;;;5043253;28;11610;-72
2023/02/21 12:31:52;;;;;;;;;50.25;43.25;;;;;;;;5045708;28;11433;-72
2023/02/21 12:34:31;;;;;;;;;57.75;48.00;;;;;;;;5044190;28;11519;-72
2023/02/21 12:37:23;;;;;;;;;43.75;38.50;;;;;;;;5024688;28;11519;-72
2023/02/21 12:40:20;;;;;;;;;39.50;35.75;;;;;;;;5029424;28;11530;-73
2023/02/21 12:43:01;;;;;;;;;46.75;40.00;;;;;;;;5041282;28;11052;-73
2023/02/21 12:45:49;;;;;;;;;44.00;35.00;;;;;;;;5049058;28;10733;-73
2023/02/21 12:48:27;;;;;;;;;47.25;37.75;;;;;;;;5042852;28;10675;-75
2023/02/21 12:50:56;;;;;;;;;50.25;42.00;;;;;;;;5039827;28;10786;-73
2023/02/21 12:53:29;;;;;;;;;47.25;38.00;;;;;;;;5028821;28;10756;-73
2023/02/21 12:56:00;;;;;;;;;42.25;38.75;;;;;;;;5046184;28;10702;-73
2023/02/21 12:58:32;;;;;;;;;47.00;41.25;;;;;;;;5048364;28;10746;-73
2023/02/21 13:01:02;;;;;;;;;47.25;36.75;;;;;;;;5039984;28;10452;-73
2023/02/21 13:03:43;;;;;;;;;44.25;37.00;;;;;;;;5045561;28;11135;-73
2023/02/21 13:06:17;;;;;;;;;37.00;35.75;;;;;;;;5038778;28;10216;-72
2023/02/21 13:08:51;;;;;;;;;36.50;34.00;;;;;;;;5039287;28;10025;-72
2023/02/21 13:11:25;;;;;;;;;39.75;34.00;;;;;;;;5027610;28;10032;-73
2023/02/21 13:13:52;;;;;;;;;40.50;37.00;;;;;;;;5047658;28;9968;-72
2023/02/21 13:16:20;;;;;;;;;35.50;34.50;;;;;;;;5042907;28;10197;-72
2023/02/21 13:18:58;;;;;;;;;50.75;42.25;;;;;;;;5043714;28;11144;-72
2023/02/21 13:21:34;;;;;;;;;53.75;43.25;;;;;;;;5041926;28;10541;-71
2023/02/21 13:24:41;;;;;;;;;43.75;37.50;;;;;;;;5023774;28;10365;-72
2023/02/21 13:27:32;;;;;;;;;44.00;38.75;;;;;;;;5042202;28;10238;-72
2023/02/21 13:30:04;;;;;;;;;43.75;37.25;;;;;;;;5041597;28;10821;-71
2023/02/21 13:32:38;;;;;;;;;36.50;33.00;;;;;;;;5029741;28;9890;-73
2023/02/21 13:35:10;;;;;;;;;48.50;38.50;;;;;;;;5037980;28;9921;-73
2023/02/21 13:37:45;;;;;;;;;53.50;43.50;;;;;;;;5041706;28;10252;-72
2023/02/21 13:40:22;;;;;;;;;43.50;38.25;;;;;;;;5022220;28;10217;-72
2023/02/21 13:43:04;;;;;;;;;42.25;36.50;;;;;;;;5042510;28;9954;-74
2023/02/21 13:45:32;;;;;;;;;40.00;37.00;;;;;;;;5025605;28;10030;-73
2023/02/21 13:48:27;;;;;;;;;46.25;39.00;;;;;;;;5036647;28;10693;-74
2023/02/21 13:50:57;;;;;;;;;41.00;36.00;;;;;;;;4996351;28;11013;-74
2023/02/21 13:53:32;;;;;;;;;40.75;37.50;;;;;;;;5040174;28;9672;-73
2023/02/21 13:56:17;;;;;;;;;42.33;37.33;;;;;;;;5045993;28;9623;-73
2023/02/21 13:58:45;;;;;;;;;39.33;35.33;;;;;;;;5024566;28;9243;-72
2023/02/21 14:01:41;;;;;;;;;38.00;33.50;;;;;;;;5041960;28;10028;-73
2023/02/21 14:05:00;;;;;;;;;38.67;35.00;;;;;;;;5014105;28;8889;-74
2023/02/21 14:07:58;;;;;;;;;37.00;35.25;;;;;;;;5042242;28;9105;-73
2023/02/21 14:10:38;;;;;;;;;31.75;31.75;;;;;;;;5042741;28;9340;-73
2023/02/21 14:13:18;;;;;;;;;40.50;36.75;;;;;;;;5044608;28;8866;-71
2023/02/21 14:15:47;;;;;;;;;40.75;36.25;;;;;;;;5039607;28;8862;-74
2023/02/21 14:18:25;;;;;;;;;41.75;35.50;;;;;;;;5043753;28;8851;-73
2023/02/21 14:20:55;;;;;;;;;34.25;32.25;;;;;;;;5042960;28;8860;-73
2023/02/21 14:23:25;;;;;;;;;45.25;37.50;;;;;;;;5042424;28;8837;-74
2023/02/21 14:25:58;;;;;;;;;45.25;35.50;;;;;;;;5038019;28;8858;-73
2023/02/21 14:28:59;;;;;;;;;35.00;33.75;;;;;;;;5035696;28;9666;-74
2023/02/21 14:31:52;;;;;;;;;36.25;34.00;;;;;;;;5041329;28;8847;-73
2023/02/21 14:34:34;;;;;;;;;33.75;30.25;;;;;;;;5035311;28;8890;-73
2023/02/21 14:37:11;;;;;;;;;41.50;35.00;;;;;;;;5040763;28;8846;-73
2023/02/21 14:39:43;;;;;;;;;38.25;34.00;;;;;;;;5018635;28;8871;-73
2023/02/21 14:42:35;;;;;;;;;36.00;31.50;;;;;;;;5042751;28;8881;-73
2023/02/21 14:45:28;;;;;;;;;37.50;33.75;;;;;;;;5034431;28;9608;-73
2023/02/21 14:48:25;;;;;;;;;41.50;32.50;;;;;;;;5036626;28;8923;-75
2023/02/21 14:51:24;;;;;;;;;34.25;33.25;;;;;;;;5028483;28;8851;-74
2023/02/21 14:54:22;;;;;;;;;36.25;34.25;;;;;;;;5021780;28;8880;-75
2023/02/21 14:57:05;;;;;;;;;36.50;33.00;;;;;;;;5016076;28;8882;-76
2023/02/21 14:59:51;;;;;;;;;30.75;28.75;;;;;;;;5038443;28;8896;-76
2023/02/21 15:02:26;;;;;;;;;37.00;34.50;;;;;;;;5003010;28;8835;-74
2023/02/21 15:04:59;;;;;;;;;39.50;35.00;;;;;;;;5003038;28;8859;-75
2023/02/21 15:07:32;;;;;;;;;37.50;35.00;;;;;;;;5041782;28;8867;-74
2023/02/21 15:10:22;;;;;;;;;37.50;33.75;;;;;;;;5043626;28;8870;-74
2023/02/21 15:12:53;;;;;;;;;36.00;33.25;;;;;;;;5033918;28;9005;-72
2023/02/21 15:15:24;;;;;;;;;52.25;44.00;;;;;;;;5037120;28;8873;-74
2023/02/21 15:18:05;;;;;;;;;56.00;45.00;;;;;;;;5038145;28;9015;-73
2023/02/21 15:20:34;;;;;;;;;54.50;42.50;;;;;;;;5036233;28;8859;-73
2023/02/21 15:23:07;;;;;;;;;57.00;44.67;;;;;;;;5021824;28;8939;-74
2023/02/21 15:25:35;;;;;;;;;50.00;43.00;;;;;;;;5017442;28;8940;-73
2023/02/21 15:28:06;;;;;;;;;51.25;42.75;;;;;;;;5042492;28;9020;-73
2023/02/21 15:30:39;;;;;;;;;43.00;37.75;;;;;;;;5040904;28;8898;-74
2023/02/21 15:33:13;;;;;;;;;43.25;37.00;;;;;;;;5043379;28;9641;-73
2023/02/21 15:35:42;;;;;;;;;34.25;32.50;;;;;;;;5037886;28;8890;-73
2023/02/21 15:38:15;;;;;;;;;45.25;38.00;;;;;;;;5039141;28;8843;-74
2023/02/21 15:40:43;;;;;;;;;49.50;40.00;;;;;;;;5016269;28;8977;-72
2023/02/21 15:43:31;;;;;;;;;43.50;36.75;;;;;;;;5032870;28;9617;-74
2023/02/21 15:46:00;;;;;;;;;46.25;37.00;;;;;;;;5044660;28;8855;-73
2023/02/21 15:48:28;;;;;;;;;46.50;37.50;;;;;;;;5043314;28;8943;-73
2023/02/21 15:50:55;;;;;;;;;50.25;40.00;;;;;;;;5048374;28;8846;-73
2023/02/21 15:53:24;;;;;;;;;47.50;39.50;;;;;;;;5051654;28;8963;-73
2023/02/21 15:55:53;;;;;;;;;54.25;44.00;;;;;;;;5044924;28;8852;-73
2023/02/21 15:58:25;;;;;;;;;51.00;42.75;;;;;;;;5046816;28;8858;-74
2023/02/21 16:01:06;;;;;;;;;50.50;41.75;;;;;;;;5026553;28;8807;-74
2023/02/21 16:03:37;;;;;;;;;47.00;37.75;;;;;;;;5043136;28;8859;-74
2023/02/21 16:06:22;;;;;;;;;49.50;39.50;;;;;;;;5027968;28;8850;-74
2023/02/21 16:08:58;;;;;;;;;49.33;41.00;;;;;;;;5045952;28;8846;-74
2023/02/21 16:11:27;;;;;;;;;49.00;42.00;;;;;;;;5025101;28;9087;-74
2023/02/21 16:13:55;;;;;;;;;46.00;37.25;;;;;;;;5047690;28;9180;-73
2023/02/21 16:16:23;;;;;;;;;49.33;41.00;;;;;;;;5048866;28;8888;-74
2023/02/21 16:18:57;;;;;;;;;50.67;38.67;;;;;;;;5028097;28;9024;-73
2023/02/21 16:21:26;;;;;;;;;39.75;36.00;;;;;;;;5040120;28;9020;-74
2023/02/21 16:23:54;;;;;;;;;41.33;37.33;;;;;;;;5042194;28;8862;-75
2023/02/21 16:38:47;;;;;;;;;35.67;32.33;;;;;;;;4869688;28;1285709;-65
2023/02/21 16:41:14;;;;;;;;;41.00;35.00;;;;;;;;5125564;22;8881;-66
2023/02/21 16:43:42;;;;;;;;;44.00;38.25;;;;;;;;5048801;28;9479;-65
2023/02/21 16:46:10;;;;;;;;;47.25;40.75;;;;;;;;5049441;28;9654;-66
2023/02/21 16:48:37;;;;;;;;;51.50;42.50;;;;;;;;5047951;28;10664;-65
2023/02/21 16:51:07;;;;;;;;;41.00;35.00;;;;;;;;5046877;28;10142;-65
2023/02/21 16:53:34;;;;;;;;;39.75;35.75;;;;;;;;5231450;22;9754;-66
2023/02/21 16:56:05;;;;;;;;;35.75;33.75;;;;;;;;5075051;28;9822;-67
2023/02/21 16:58:35;;;;;;;;;39.75;36.50;;;;;;;;5076530;28;10012;-67
2023/02/21 17:01:07;;;;;;;;;40.75;34.50;;;;;;;;5078095;28;10214;-67
2023/02/21 17:03:35;;;;;;;;;40.00;34.50;;;;;;;;5076398;28;10271;-67
2023/02/21 17:06:02;;;;;;;;;25.75;24.25;;;;;;;;5598618;22;10312;-67
2023/02/21 17:08:29;;;;;;;;;40.00;34.50;;;;;;;;5054406;28;10356;-67
2023/02/21 17:10:57;;;;;;;;;38.50;32.25;;;;;;;;5050892;28;10416;-68
2023/02/21 17:13:26;;;;;;;;;33.75;32.25;;;;;;;;5065155;22;10442;-67
2023/02/21 17:15:54;;;;;;;;;38.00;33.50;;;;;;;;5060207;22;10721;-68
2023/02/21 17:18:21;;;;;;;;;43.00;35.00;;;;;;;;5060466;22;10690;-69
2023/02/21 17:20:48;;;;;;;;;35.00;32.25;;;;;;;;5039809;22;10887;-71
2023/02/21 17:23:16;;;;;;;;;37.00;32.75;;;;;;;;5032223;28;10816;-72
2023/02/21 17:25:44;;;;;;;;;40.75;36.25;;;;;;;;5031707;28;10757;-72